sensor_id;sensor_type;location;lat;lon;timestamp;temperature;humidity
22153;DHT22;11242;50.536;12.688;2024-02-28T00:02:00;2.50;99.90
22153;DHT22;11242;50.536;12.688;2024-02-28T00:04:26;2.50;99.90
22153;DHT22;11242;50.536;12.688;2024-02-28T00:06:51;2.50;99.90
22153;DHT22;11242;50.536;12.688;2024-02-28T00:09:17;2.50;99.90
22153;DHT22;11242;50.536;12.688;2024-02-28T00:11:43;2.50;99.90
22153;DHT22;11242;50.536;12.688;2024-02-28T00:14:10;2.50;99.90
22153;DHT22;11242;50.536;12.688;2024-02-28T00:16:36;2.50;99.90
22153;DHT22;11242;50.536;12.688;2024-02-28T00:19:01;2.50;99.90
22153;DHT22;11242;50.536;12.688;2024-02-28T00:21:27;2.50;99.90
22153;DHT22;11242;50.536;12.688;2024-02-28T00:23:52;2.50;99.90
22153;DHT22;11242;50.536;12.688;2024-02-28T00:26:18;2.50;99.90
22153;DHT22;11242;50.536;12.688;2024-02-28T00:28:44;2.50;99.90
22153;DHT22;11242;50.536;12.688;2024-02-28T00:31:09;2.50;99.90
22153;DHT22;11242;50.536;12.688;2024-02-28T00:33:35;2.50;99.90
22153;DHT22;11242;50.536;12.688;2024-02-28T00:36:01;2.50;99.90
22153;DHT22;11242;50.536;12.688;2024-02-28T00:38:26;2.50;99.90
22153;DHT22;11242;50.536;12.688;2024-02-28T00:40:53;2.50;99.90
22153;DHT22;11242;50.536;12.688;2024-02-28T00:43:18;2.50;99.90
22153;DHT22;11242;50.536;12.688;2024-02-28T00:45:44;2.50;99.90
22153;DHT22;11242;50.536;12.688;2024-02-28T00:48:09;2.50;99.90
22153;DHT22;11242;50.536;12.688;2024-02-28T00:50:35;2.50;99.90
22153;DHT22;11242;50.536;12.688;2024-02-28T00:53:01;2.50;99.90
22153;DHT22;11242;50.536;12.688;2024-02-28T00:55:26;2.50;99.90
22153;DHT22;11242;50.536;12.688;2024-02-28T00:57:52;2.50;99.90
22153;DHT22;11242;50.536;12.688;2024-02-28T01:00:17;2.50;99.90
22153;DHT22;11242;50.536;12.688;2024-02-28T01:02:43;2.50;99.90
22153;DHT22;11242;50.536;12.688;2024-02-28T01:05:08;2.50;99.90
22153;DHT22;11242;50.536;12.688;2024-02-28T01:07:34;2.50;99.90
22153;DHT22;11242;50.536;12.688;2024-02-28T01:10:00;2.50;99.90
22153;DHT22;11242;50.536;12.688;2024-02-28T01:12:25;2.50;99.90
22153;DHT22;11242;50.536;12.688;2024-02-28T01:14:51;2.50;99.90
22153;DHT22;11242;50.536;12.688;2024-02-28T01:17:16;2.50;99.90
22153;DHT22;11242;50.536;12.688;2024-02-28T01:19:42;2.50;99.90
22153;DHT22;11242;50.536;12.688;2024-02-28T01:22:07;2.50;99.90
22153;DHT22;11242;50.536;12.688;2024-02-28T01:24:34;2.50;99.90
22153;DHT22;11242;50.536;12.688;2024-02-28T01:27:00;2.50;99.90
22153;DHT22;11242;50.536;12.688;2024-02-28T01:29:25;2.50;99.90
22153;DHT22;11242;50.536;12.688;2024-02-28T01:31:51;2.40;99.90
22153;DHT22;11242;50.536;12.688;2024-02-28T01:34:17;2.50;99.90
22153;DHT22;11242;50.536;12.688;2024-02-28T01:36:42;2.50;99.90
22153;DHT22;11242;50.536;12.688;2024-02-28T01:39:08;2.50;99.90
22153;DHT22;11242;50.536;12.688;2024-02-28T01:41:34;2.50;99.90
22153;DHT22;11242;50.536;12.688;2024-02-28T01:43:59;2.50;99.90
22153;DHT22;11242;50.536;12.688;2024-02-28T01:46:27;2.50;99.90
22153;DHT22;11242;50.536;12.688;2024-02-28T01:48:56;2.60;99.90
22153;DHT22;11242;50.536;12.688;2024-02-28T01:51:24;2.50;99.90
22153;DHT22;11242;50.536;12.688;2024-02-28T01:53:51;2.50;99.90
22153;DHT22;11242;50.536;12.688;2024-02-28T01:56:18;2.50;99.90
22153;DHT22;11242;50.536;12.688;2024-02-28T01:58:48;2.50;99.90
22153;DHT22;11242;50.536;12.688;2024-02-28T02:01:14;2.50;99.90
22153;DHT22;11242;50.536;12.688;2024-02-28T02:03:45;2.50;99.90
22153;DHT22;11242;50.536;12.688;2024-02-28T02:06:10;2.50;99.90
22153;DHT22;11242;50.536;12.688;2024-02-28T02:08:37;2.50;99.90
22153;DHT22;11242;50.536;12.688;2024-02-28T02:11:04;2.60;99.90
22153;DHT22;11242;50.536;12.688;2024-02-28T02:13:30;2.60;99.90
22153;DHT22;11242;50.536;12.688;2024-02-28T02:15:55;2.60;99.90
22153;DHT22;11242;50.536;12.688;2024-02-28T02:18:21;2.60;99.90
22153;DHT22;11242;50.536;12.688;2024-02-28T02:20:50;2.60;99.90
22153;DHT22;11242;50.536;12.688;2024-02-28T02:23:16;2.60;99.90
22153;DHT22;11242;50.536;12.688;2024-02-28T02:25:48;2.60;99.90
22153;DHT22;11242;50.536;12.688;2024-02-28T02:28:14;2.60;99.90
22153;DHT22;11242;50.536;12.688;2024-02-28T02:30:40;2.60;99.90
22153;DHT22;11242;50.536;12.688;2024-02-28T02:33:07;2.60;99.90
22153;DHT22;11242;50.536;12.688;2024-02-28T02:35:33;2.60;99.90
22153;DHT22;11242;50.536;12.688;2024-02-28T02:37:59;2.60;99.90
22153;DHT22;11242;50.536;12.688;2024-02-28T02:40:25;2.60;99.90
22153;DHT22;11242;50.536;12.688;2024-02-28T02:42:50;2.60;99.90
22153;DHT22;11242;50.536;12.688;2024-02-28T02:45:16;2.60;99.90
22153;DHT22;11242;50.536;12.688;2024-02-28T02:47:42;2.50;99.90
22153;DHT22;11242;50.536;12.688;2024-02-28T02:50:09;2.50;99.90
22153;DHT22;11242;50.536;12.688;2024-02-28T02:52:35;2.50;99.90
22153;DHT22;11242;50.536;12.688;2024-02-28T02:55:01;2.50;99.90
22153;DHT22;11242;50.536;12.688;2024-02-28T02:57:27;2.60;99.90
22153;DHT22;11242;50.536;12.688;2024-02-28T02:59:52;2.60;99.90
22153;DHT22;11242;50.536;12.688;2024-02-28T03:02:18;2.60;99.90
22153;DHT22;11242;50.536;12.688;2024-02-28T03:04:43;2.60;99.90
22153;DHT22;11242;50.536;12.688;2024-02-28T03:07:09;2.60;99.90
22153;DHT22;11242;50.536;12.688;2024-02-28T03:09:34;2.60;99.90
22153;DHT22;11242;50.536;12.688;2024-02-28T03:12:00;2.60;99.90
22153;DHT22;11242;50.536;12.688;2024-02-28T03:14:26;2.50;99.90
22153;DHT22;11242;50.536;12.688;2024-02-28T03:16:55;2.50;99.90
22153;DHT22;11242;50.536;12.688;2024-02-28T03:19:22;2.50;99.90
22153;DHT22;11242;50.536;12.688;2024-02-28T03:21:47;2.60;99.90
22153;DHT22;11242;50.536;12.688;2024-02-28T03:24:13;2.60;99.90
22153;DHT22;11242;50.536;12.688;2024-02-28T03:26:38;2.60;99.90
22153;DHT22;11242;50.536;12.688;2024-02-28T03:29:04;2.60;99.90
22153;DHT22;11242;50.536;12.688;2024-02-28T03:31:29;2.60;99.90
22153;DHT22;11242;50.536;12.688;2024-02-28T03:33:55;2.60;99.90
22153;DHT22;11242;50.536;12.688;2024-02-28T03:36:20;2.70;99.90
22153;DHT22;11242;50.536;12.688;2024-02-28T03:38:46;2.70;99.90
22153;DHT22;11242;50.536;12.688;2024-02-28T03:41:12;2.60;99.90
22153;DHT22;11242;50.536;12.688;2024-02-28T03:43:37;2.60;99.90
22153;DHT22;11242;50.536;12.688;2024-02-28T03:46:03;2.70;99.90
22153;DHT22;11242;50.536;12.688;2024-02-28T03:48:28;2.70;99.90
22153;DHT22;11242;50.536;12.688;2024-02-28T03:50:54;2.70;99.90
22153;DHT22;11242;50.536;12.688;2024-02-28T03:53:19;2.60;99.90
22153;DHT22;11242;50.536;12.688;2024-02-28T03:55:45;2.70;99.90
22153;DHT22;11242;50.536;12.688;2024-02-28T03:58:11;2.70;99.90
22153;DHT22;11242;50.536;12.688;2024-02-28T04:00:37;2.70;99.90
22153;DHT22;11242;50.536;12.688;2024-02-28T04:03:04;2.70;99.90
22153;DHT22;11242;50.536;12.688;2024-02-28T04:05:29;2.70;99.90
22153;DHT22;11242;50.536;12.688;2024-02-28T04:07:55;2.70;99.90
22153;DHT22;11242;50.536;12.688;2024-02-28T04:10:21;2.70;99.90
22153;DHT22;11242;50.536;12.688;2024-02-28T04:12:46;2.70;99.90
22153;DHT22;11242;50.536;12.688;2024-02-28T04:15:12;2.70;99.90
22153;DHT22;11242;50.536;12.688;2024-02-28T04:17:39;2.70;99.90
22153;DHT22;11242;50.536;12.688;2024-02-28T04:20:13;2.70;99.90
22153;DHT22;11242;50.536;12.688;2024-02-28T04:22:39;2.70;99.90
22153;DHT22;11242;50.536;12.688;2024-02-28T04:25:07;2.70;99.90
22153;DHT22;11242;50.536;12.688;2024-02-28T04:27:33;2.70;99.90
22153;DHT22;11242;50.536;12.688;2024-02-28T04:29:59;2.70;99.90
22153;DHT22;11242;50.536;12.688;2024-02-28T04:32:24;2.70;99.90
22153;DHT22;11242;50.536;12.688;2024-02-28T04:34:50;2.70;99.90
22153;DHT22;11242;50.536;12.688;2024-02-28T04:37:16;2.70;99.90
22153;DHT22;11242;50.536;12.688;2024-02-28T04:39:41;2.70;99.90
22153;DHT22;11242;50.536;12.688;2024-02-28T04:42:07;2.70;99.90
22153;DHT22;11242;50.536;12.688;2024-02-28T04:44:33;2.70;99.90
22153;DHT22;11242;50.536;12.688;2024-02-28T04:46:58;2.70;99.90
22153;DHT22;11242;50.536;12.688;2024-02-28T04:49:24;2.70;99.90
22153;DHT22;11242;50.536;12.688;2024-02-28T04:51:50;2.70;99.90
22153;DHT22;11242;50.536;12.688;2024-02-28T04:54:15;2.70;99.90
22153;DHT22;11242;50.536;12.688;2024-02-28T04:56:41;2.70;99.90
22153;DHT22;11242;50.536;12.688;2024-02-28T04:59:10;2.60;99.90
22153;DHT22;11242;50.536;12.688;2024-02-28T05:01:36;2.60;99.90
22153;DHT22;11242;50.536;12.688;2024-02-28T05:04:06;2.60;99.90
22153;DHT22;11242;50.536;12.688;2024-02-28T05:06:32;2.60;99.90
22153;DHT22;11242;50.536;12.688;2024-02-28T05:08:57;2.60;99.90
22153;DHT22;11242;50.536;12.688;2024-02-28T05:11:23;2.50;99.90
22153;DHT22;11242;50.536;12.688;2024-02-28T05:13:48;2.50;99.90
22153;DHT22;11242;50.536;12.688;2024-02-28T05:16:15;2.50;99.90
22153;DHT22;11242;50.536;12.688;2024-02-28T05:18:41;2.50;99.90
22153;DHT22;11242;50.536;12.688;2024-02-28T05:21:06;2.50;99.90
22153;DHT22;11242;50.536;12.688;2024-02-28T05:23:32;2.50;99.90
22153;DHT22;11242;50.536;12.688;2024-02-28T05:25:57;2.50;99.90
22153;DHT22;11242;50.536;12.688;2024-02-28T05:28:29;2.50;99.90
22153;DHT22;11242;50.536;12.688;2024-02-28T05:30:55;2.40;99.90
22153;DHT22;11242;50.536;12.688;2024-02-28T05:33:21;2.50;99.90
22153;DHT22;11242;50.536;12.688;2024-02-28T05:35:46;2.50;99.90
22153;DHT22;11242;50.536;12.688;2024-02-28T05:38:12;2.50;99.90
22153;DHT22;11242;50.536;12.688;2024-02-28T05:40:37;2.50;99.90
22153;DHT22;11242;50.536;12.688;2024-02-28T05:43:03;2.40;99.90
22153;DHT22;11242;50.536;12.688;2024-02-28T05:45:29;2.40;99.90
22153;DHT22;11242;50.536;12.688;2024-02-28T05:47:55;2.40;99.90
22153;DHT22;11242;50.536;12.688;2024-02-28T05:50:20;2.40;99.90
22153;DHT22;11242;50.536;12.688;2024-02-28T05:52:46;2.40;99.90
22153;DHT22;11242;50.536;12.688;2024-02-28T05:55:12;2.40;99.90
22153;DHT22;11242;50.536;12.688;2024-02-28T05:57:38;2.40;99.90
22153;DHT22;11242;50.536;12.688;2024-02-28T06:00:04;2.40;99.90
22153;DHT22;11242;50.536;12.688;2024-02-28T06:02:37;2.50;99.90
22153;DHT22;11242;50.536;12.688;2024-02-28T06:05:03;2.40;99.90
22153;DHT22;11242;50.536;12.688;2024-02-28T06:07:29;2.40;99.90
22153;DHT22;11242;50.536;12.688;2024-02-28T06:09:54;2.40;99.90
22153;DHT22;11242;50.536;12.688;2024-02-28T06:12:20;2.50;99.90
22153;DHT22;11242;50.536;12.688;2024-02-28T06:14:45;2.50;99.90
22153;DHT22;11242;50.536;12.688;2024-02-28T06:17:11;2.50;99.90
22153;DHT22;11242;50.536;12.688;2024-02-28T06:19:37;2.50;99.90
22153;DHT22;11242;50.536;12.688;2024-02-28T06:22:02;2.50;99.90
22153;DHT22;11242;50.536;12.688;2024-02-28T06:24:28;2.50;99.90
22153;DHT22;11242;50.536;12.688;2024-02-28T06:26:53;2.60;99.90
22153;DHT22;11242;50.536;12.688;2024-02-28T06:29:19;2.60;99.90
22153;DHT22;11242;50.536;12.688;2024-02-28T06:31:50;2.50;99.90
22153;DHT22;11242;50.536;12.688;2024-02-28T06:34:16;2.50;99.90
22153;DHT22;11242;50.536;12.688;2024-02-28T06:36:41;2.50;99.90
22153;DHT22;11242;50.536;12.688;2024-02-28T06:39:07;2.60;99.90
22153;DHT22;11242;50.536;12.688;2024-02-28T06:41:32;2.60;99.90
22153;DHT22;11242;50.536;12.688;2024-02-28T06:43:58;2.60;99.90
22153;DHT22;11242;50.536;12.688;2024-02-28T06:46:24;2.60;99.90
22153;DHT22;11242;50.536;12.688;2024-02-28T06:48:50;2.60;99.90
22153;DHT22;11242;50.536;12.688;2024-02-28T06:51:18;2.50;99.90
22153;DHT22;11242;50.536;12.688;2024-02-28T06:53:44;2.50;99.90
22153;DHT22;11242;50.536;12.688;2024-02-28T06:56:10;2.50;99.90
22153;DHT22;11242;50.536;12.688;2024-02-28T06:58:35;2.50;99.90
22153;DHT22;11242;50.536;12.688;2024-02-28T07:01:01;2.50;99.90
22153;DHT22;11242;50.536;12.688;2024-02-28T07:03:26;2.50;99.90
22153;DHT22;11242;50.536;12.688;2024-02-28T07:05:52;2.50;99.90
22153;DHT22;11242;50.536;12.688;2024-02-28T07:08:19;2.60;99.90
22153;DHT22;11242;50.536;12.688;2024-02-28T07:10:46;2.60;99.90
22153;DHT22;11242;50.536;12.688;2024-02-28T07:13:15;2.50;99.90
22153;DHT22;11242;50.536;12.688;2024-02-28T07:15:40;2.50;99.90
22153;DHT22;11242;50.536;12.688;2024-02-28T07:18:07;2.50;99.90
22153;DHT22;11242;50.536;12.688;2024-02-28T07:20:33;2.50;99.90
22153;DHT22;11242;50.536;12.688;2024-02-28T07:22:58;2.50;99.90
22153;DHT22;11242;50.536;12.688;2024-02-28T07:25:24;2.50;99.90
22153;DHT22;11242;50.536;12.688;2024-02-28T07:27:49;2.50;99.90
22153;DHT22;11242;50.536;12.688;2024-02-28T07:30:15;2.50;99.90
22153;DHT22;11242;50.536;12.688;2024-02-28T07:32:41;2.50;99.90
22153;DHT22;11242;50.536;12.688;2024-02-28T07:35:07;2.50;99.90
22153;DHT22;11242;50.536;12.688;2024-02-28T07:37:32;2.50;99.90
22153;DHT22;11242;50.536;12.688;2024-02-28T07:39:58;2.50;99.90
22153;DHT22;11242;50.536;12.688;2024-02-28T07:42:23;2.50;99.90
22153;DHT22;11242;50.536;12.688;2024-02-28T07:44:49;2.60;99.90
22153;DHT22;11242;50.536;12.688;2024-02-28T07:47:22;2.60;99.90
22153;DHT22;11242;50.536;12.688;2024-02-28T07:49:48;2.70;99.90
22153;DHT22;11242;50.536;12.688;2024-02-28T07:52:13;2.70;99.90
22153;DHT22;11242;50.536;12.688;2024-02-28T07:54:41;2.70;99.90
22153;DHT22;11242;50.536;12.688;2024-02-28T07:57:07;2.80;99.90
22153;DHT22;11242;50.536;12.688;2024-02-28T07:59:39;2.80;99.90
22153;DHT22;11242;50.536;12.688;2024-02-28T08:02:05;2.80;99.90
22153;DHT22;11242;50.536;12.688;2024-02-28T08:04:30;2.80;99.90
22153;DHT22;11242;50.536;12.688;2024-02-28T08:06:56;2.90;99.90
22153;DHT22;11242;50.536;12.688;2024-02-28T08:09:22;2.90;99.90
22153;DHT22;11242;50.536;12.688;2024-02-28T08:11:48;2.90;99.90
22153;DHT22;11242;50.536;12.688;2024-02-28T08:14:13;2.90;99.90
22153;DHT22;11242;50.536;12.688;2024-02-28T08:16:39;2.90;99.90
22153;DHT22;11242;50.536;12.688;2024-02-28T08:19:04;2.90;99.90
22153;DHT22;11242;50.536;12.688;2024-02-28T08:21:30;2.90;99.90
22153;DHT22;11242;50.536;12.688;2024-02-28T08:23:55;2.80;99.90
22153;DHT22;11242;50.536;12.688;2024-02-28T08:26:23;2.80;99.90
22153;DHT22;11242;50.536;12.688;2024-02-28T08:28:48;2.80;99.90
22153;DHT22;11242;50.536;12.688;2024-02-28T08:31:14;2.80;99.90
22153;DHT22;11242;50.536;12.688;2024-02-28T08:33:41;2.80;99.90
22153;DHT22;11242;50.536;12.688;2024-02-28T08:36:06;2.80;99.90
22153;DHT22;11242;50.536;12.688;2024-02-28T08:38:32;2.80;99.90
22153;DHT22;11242;50.536;12.688;2024-02-28T08:40:57;2.70;99.90
22153;DHT22;11242;50.536;12.688;2024-02-28T08:43:23;2.70;99.90
22153;DHT22;11242;50.536;12.688;2024-02-28T08:45:48;2.80;99.90
22153;DHT22;11242;50.536;12.688;2024-02-28T08:48:17;2.70;99.90
22153;DHT22;11242;50.536;12.688;2024-02-28T08:50:42;2.70;99.90
22153;DHT22;11242;50.536;12.688;2024-02-28T08:53:08;2.70;99.90
22153;DHT22;11242;50.536;12.688;2024-02-28T08:55:33;2.70;99.90
22153;DHT22;11242;50.536;12.688;2024-02-28T08:57:59;2.70;99.90
22153;DHT22;11242;50.536;12.688;2024-02-28T09:00:24;2.80;99.90
22153;DHT22;11242;50.536;12.688;2024-02-28T09:02:50;2.70;99.90
22153;DHT22;11242;50.536;12.688;2024-02-28T09:05:16;2.70;99.90
22153;DHT22;11242;50.536;12.688;2024-02-28T09:07:41;2.70;99.90
22153;DHT22;11242;50.536;12.688;2024-02-28T09:10:07;2.70;99.90
22153;DHT22;11242;50.536;12.688;2024-02-28T09:12:33;2.80;99.90
22153;DHT22;11242;50.536;12.688;2024-02-28T09:14:59;2.80;99.90
22153;DHT22;11242;50.536;12.688;2024-02-28T09:17:25;2.90;99.90
22153;DHT22;11242;50.536;12.688;2024-02-28T09:19:52;3.00;99.90
22153;DHT22;11242;50.536;12.688;2024-02-28T09:22:17;3.00;99.90
22153;DHT22;11242;50.536;12.688;2024-02-28T09:24:43;3.00;99.90
22153;DHT22;11242;50.536;12.688;2024-02-28T09:27:08;3.10;99.90
22153;DHT22;11242;50.536;12.688;2024-02-28T09:29:34;3.10;99.90
22153;DHT22;11242;50.536;12.688;2024-02-28T09:31:59;3.20;99.90
22153;DHT22;11242;50.536;12.688;2024-02-28T09:34:25;3.20;99.90
22153;DHT22;11242;50.536;12.688;2024-02-28T09:36:50;3.20;99.90
22153;DHT22;11242;50.536;12.688;2024-02-28T09:39:16;3.20;99.90
22153;DHT22;11242;50.536;12.688;2024-02-28T09:41:42;3.20;99.90
22153;DHT22;11242;50.536;12.688;2024-02-28T09:44:08;3.30;99.90
22153;DHT22;11242;50.536;12.688;2024-02-28T09:46:34;3.30;99.90
22153;DHT22;11242;50.536;12.688;2024-02-28T09:49:03;3.30;99.90
22153;DHT22;11242;50.536;12.688;2024-02-28T09:51:34;3.30;99.90
22153;DHT22;11242;50.536;12.688;2024-02-28T09:54:03;3.40;99.90
22153;DHT22;11242;50.536;12.688;2024-02-28T09:56:29;3.40;99.90
22153;DHT22;11242;50.536;12.688;2024-02-28T09:58:55;3.40;99.90
22153;DHT22;11242;50.536;12.688;2024-02-28T10:01:22;3.40;99.90
22153;DHT22;11242;50.536;12.688;2024-02-28T10:03:49;3.40;99.90
22153;DHT22;11242;50.536;12.688;2024-02-28T10:06:16;3.50;99.90
22153;DHT22;11242;50.536;12.688;2024-02-28T10:08:41;3.70;99.90
22153;DHT22;11242;50.536;12.688;2024-02-28T10:11:07;3.90;99.90
22153;DHT22;11242;50.536;12.688;2024-02-28T10:13:32;3.90;99.90
22153;DHT22;11242;50.536;12.688;2024-02-28T10:15:58;4.10;99.90
22153;DHT22;11242;50.536;12.688;2024-02-28T10:18:25;4.20;99.90
22153;DHT22;11242;50.536;12.688;2024-02-28T10:20:51;4.20;99.90
22153;DHT22;11242;50.536;12.688;2024-02-28T10:23:17;4.10;99.90
22153;DHT22;11242;50.536;12.688;2024-02-28T10:25:46;4.20;99.90
22153;DHT22;11242;50.536;12.688;2024-02-28T10:28:13;4.30;99.90
22153;DHT22;11242;50.536;12.688;2024-02-28T10:30:41;4.30;99.90
22153;DHT22;11242;50.536;12.688;2024-02-28T10:33:13;4.30;99.90
22153;DHT22;11242;50.536;12.688;2024-02-28T10:35:42;4.20;99.90
22153;DHT22;11242;50.536;12.688;2024-02-28T10:38:13;4.20;99.90
22153;DHT22;11242;50.536;12.688;2024-02-28T10:40:41;4.10;99.90
22153;DHT22;11242;50.536;12.688;2024-02-28T10:43:09;4.10;99.90
22153;DHT22;11242;50.536;12.688;2024-02-28T10:45:39;4.10;99.90
22153;DHT22;11242;50.536;12.688;2024-02-28T10:48:05;4.20;99.90
22153;DHT22;11242;50.536;12.688;2024-02-28T10:50:32;4.40;99.90
22153;DHT22;11242;50.536;12.688;2024-02-28T10:53:03;4.50;99.90
22153;DHT22;11242;50.536;12.688;2024-02-28T10:55:33;4.60;99.90
22153;DHT22;11242;50.536;12.688;2024-02-28T10:58:08;4.60;99.90
22153;DHT22;11242;50.536;12.688;2024-02-28T11:00:39;4.50;99.90
22153;DHT22;11242;50.536;12.688;2024-02-28T11:03:07;4.40;99.90
22153;DHT22;11242;50.536;12.688;2024-02-28T11:05:41;4.40;99.90
22153;DHT22;11242;50.536;12.688;2024-02-28T11:08:10;4.70;99.90
22153;DHT22;11242;50.536;12.688;2024-02-28T11:10:41;4.80;99.90
22153;DHT22;11242;50.536;12.688;2024-02-28T11:13:07;5.00;99.90
22153;DHT22;11242;50.536;12.688;2024-02-28T11:15:36;5.20;99.90
22153;DHT22;11242;50.536;12.688;2024-02-28T11:18:08;5.40;99.90
22153;DHT22;11242;50.536;12.688;2024-02-28T11:20:35;5.60;99.90
22153;DHT22;11242;50.536;12.688;2024-02-28T11:23:00;5.70;99.90
22153;DHT22;11242;50.536;12.688;2024-02-28T11:25:26;5.50;99.90
22153;DHT22;11242;50.536;12.688;2024-02-28T11:27:52;5.30;99.90
22153;DHT22;11242;50.536;12.688;2024-02-28T11:30:17;5.10;99.90
22153;DHT22;11242;50.536;12.688;2024-02-28T11:32:43;5.20;99.90
22153;DHT22;11242;50.536;12.688;2024-02-28T11:35:09;5.30;99.90
22153;DHT22;11242;50.536;12.688;2024-02-28T11:37:38;5.50;99.90
22153;DHT22;11242;50.536;12.688;2024-02-28T11:40:07;5.40;99.90
22153;DHT22;11242;50.536;12.688;2024-02-28T11:42:34;5.40;99.90
22153;DHT22;11242;50.536;12.688;2024-02-28T11:44:59;5.50;99.90
22153;DHT22;11242;50.536;12.688;2024-02-28T11:47:28;5.30;99.90
22153;DHT22;11242;50.536;12.688;2024-02-28T11:50:01;5.40;99.90
22153;DHT22;11242;50.536;12.688;2024-02-28T11:52:27;5.60;99.90
22153;DHT22;11242;50.536;12.688;2024-02-28T11:54:52;5.70;99.90
22153;DHT22;11242;50.536;12.688;2024-02-28T11:57:19;5.80;99.90
22153;DHT22;11242;50.536;12.688;2024-02-28T11:59:45;6.00;99.90
22153;DHT22;11242;50.536;12.688;2024-02-28T12:02:12;6.00;99.90
22153;DHT22;11242;50.536;12.688;2024-02-28T12:04:39;6.10;99.90
22153;DHT22;11242;50.536;12.688;2024-02-28T12:07:05;6.20;99.90
22153;DHT22;11242;50.536;12.688;2024-02-28T12:09:30;6.40;99.90
22153;DHT22;11242;50.536;12.688;2024-02-28T12:11:56;6.60;99.90
22153;DHT22;11242;50.536;12.688;2024-02-28T12:14:25;6.70;99.90
22153;DHT22;11242;50.536;12.688;2024-02-28T12:16:50;6.80;99.90
22153;DHT22;11242;50.536;12.688;2024-02-28T12:19:16;6.90;99.90
22153;DHT22;11242;50.536;12.688;2024-02-28T12:21:45;6.80;99.90
22153;DHT22;11242;50.536;12.688;2024-02-28T12:24:11;6.80;99.90
22153;DHT22;11242;50.536;12.688;2024-02-28T12:26:40;6.50;99.90
22153;DHT22;11242;50.536;12.688;2024-02-28T12:29:06;6.40;99.90
22153;DHT22;11242;50.536;12.688;2024-02-28T12:31:32;6.40;99.90
22153;DHT22;11242;50.536;12.688;2024-02-28T12:33:57;6.30;99.90
22153;DHT22;11242;50.536;12.688;2024-02-28T12:36:23;6.20;99.90
22153;DHT22;11242;50.536;12.688;2024-02-28T12:38:50;6.30;99.90
22153;DHT22;11242;50.536;12.688;2024-02-28T12:41:15;6.20;99.90
22153;DHT22;11242;50.536;12.688;2024-02-28T12:43:41;6.20;99.90
22153;DHT22;11242;50.536;12.688;2024-02-28T12:46:06;6.00;99.90
22153;DHT22;11242;50.536;12.688;2024-02-28T12:48:39;5.80;99.90
22153;DHT22;11242;50.536;12.688;2024-02-28T12:51:05;5.80;99.90
22153;DHT22;11242;50.536;12.688;2024-02-28T12:53:34;5.70;99.90
22153;DHT22;11242;50.536;12.688;2024-02-28T12:56:00;5.80;99.90
22153;DHT22;11242;50.536;12.688;2024-02-28T12:58:26;5.90;99.90
22153;DHT22;11242;50.536;12.688;2024-02-28T13:00:51;5.90;99.90
22153;DHT22;11242;50.536;12.688;2024-02-28T13:03:17;5.90;99.90
22153;DHT22;11242;50.536;12.688;2024-02-28T13:05:43;5.90;99.90
22153;DHT22;11242;50.536;12.688;2024-02-28T13:08:09;5.80;99.90
22153;DHT22;11242;50.536;12.688;2024-02-28T13:10:35;6.00;99.90
22153;DHT22;11242;50.536;12.688;2024-02-28T13:13:02;5.90;99.90
22153;DHT22;11242;50.536;12.688;2024-02-28T13:15:28;6.00;99.90
22153;DHT22;11242;50.536;12.688;2024-02-28T13:17:54;5.80;99.90
22153;DHT22;11242;50.536;12.688;2024-02-28T13:20:19;5.70;99.90
22153;DHT22;11242;50.536;12.688;2024-02-28T13:22:45;5.90;99.90
22153;DHT22;11242;50.536;12.688;2024-02-28T13:25:11;6.00;99.90
22153;DHT22;11242;50.536;12.688;2024-02-28T13:27:37;6.00;99.90
22153;DHT22;11242;50.536;12.688;2024-02-28T13:30:03;5.90;99.90
22153;DHT22;11242;50.536;12.688;2024-02-28T13:32:29;5.90;99.90
22153;DHT22;11242;50.536;12.688;2024-02-28T13:34:54;5.70;99.90
22153;DHT22;11242;50.536;12.688;2024-02-28T13:37:20;5.60;99.90
22153;DHT22;11242;50.536;12.688;2024-02-28T13:39:45;5.70;99.90
22153;DHT22;11242;50.536;12.688;2024-02-28T13:42:12;5.70;99.90
22153;DHT22;11242;50.536;12.688;2024-02-28T13:44:37;5.70;99.90
22153;DHT22;11242;50.536;12.688;2024-02-28T13:47:03;5.60;99.90
22153;DHT22;11242;50.536;12.688;2024-02-28T13:49:29;5.60;99.90
22153;DHT22;11242;50.536;12.688;2024-02-28T13:51:55;5.50;99.90
22153;DHT22;11242;50.536;12.688;2024-02-28T13:54:21;5.50;99.90
22153;DHT22;11242;50.536;12.688;2024-02-28T13:56:46;5.50;99.90
22153;DHT22;11242;50.536;12.688;2024-02-28T13:59:12;5.60;99.90
22153;DHT22;11242;50.536;12.688;2024-02-28T14:01:38;5.50;99.90
22153;DHT22;11242;50.536;12.688;2024-02-28T14:04:04;5.60;99.90
22153;DHT22;11242;50.536;12.688;2024-02-28T14:06:29;5.70;99.90
22153;DHT22;11242;50.536;12.688;2024-02-28T14:08:55;5.60;99.90
22153;DHT22;11242;50.536;12.688;2024-02-28T14:11:22;5.70;99.90
22153;DHT22;11242;50.536;12.688;2024-02-28T14:13:48;5.60;99.90
22153;DHT22;11242;50.536;12.688;2024-02-28T14:16:14;5.70;99.90
22153;DHT22;11242;50.536;12.688;2024-02-28T14:18:39;5.70;99.90
22153;DHT22;11242;50.536;12.688;2024-02-28T14:21:05;5.70;99.90
22153;DHT22;11242;50.536;12.688;2024-02-28T14:23:30;5.60;99.90
22153;DHT22;11242;50.536;12.688;2024-02-28T14:25:57;5.60;99.90
22153;DHT22;11242;50.536;12.688;2024-02-28T14:28:22;5.60;99.90
22153;DHT22;11242;50.536;12.688;2024-02-28T14:30:49;5.60;99.90
22153;DHT22;11242;50.536;12.688;2024-02-28T14:33:15;5.50;99.90
22153;DHT22;11242;50.536;12.688;2024-02-28T14:35:41;5.50;99.90
22153;DHT22;11242;50.536;12.688;2024-02-28T14:38:07;5.50;99.90
22153;DHT22;11242;50.536;12.688;2024-02-28T14:40:33;5.50;99.90
22153;DHT22;11242;50.536;12.688;2024-02-28T14:42:58;5.60;99.90
22153;DHT22;11242;50.536;12.688;2024-02-28T14:45:24;5.60;99.90
22153;DHT22;11242;50.536;12.688;2024-02-28T14:47:53;5.50;99.90
22153;DHT22;11242;50.536;12.688;2024-02-28T14:50:19;5.60;99.90
22153;DHT22;11242;50.536;12.688;2024-02-28T14:52:46;5.60;99.90
22153;DHT22;11242;50.536;12.688;2024-02-28T14:55:11;5.60;99.90
22153;DHT22;11242;50.536;12.688;2024-02-28T14:57:37;5.60;99.90
22153;DHT22;11242;50.536;12.688;2024-02-28T15:00:04;5.60;99.90
22153;DHT22;11242;50.536;12.688;2024-02-28T15:02:35;5.50;99.90
22153;DHT22;11242;50.536;12.688;2024-02-28T15:05:01;5.40;99.90
22153;DHT22;11242;50.536;12.688;2024-02-28T15:07:30;5.30;99.90
22153;DHT22;11242;50.536;12.688;2024-02-28T15:09:56;5.30;99.90
22153;DHT22;11242;50.536;12.688;2024-02-28T15:12:28;5.20;99.90
22153;DHT22;11242;50.536;12.688;2024-02-28T15:14:53;5.20;99.90
22153;DHT22;11242;50.536;12.688;2024-02-28T15:17:22;5.20;99.90
22153;DHT22;11242;50.536;12.688;2024-02-28T15:19:47;5.20;99.90
22153;DHT22;11242;50.536;12.688;2024-02-28T15:22:13;5.10;99.90
22153;DHT22;11242;50.536;12.688;2024-02-28T15:24:39;5.10;99.90